Terminal Aerodrome Forecast
Issued by NWS Melbourne, FL

Home | Current Version | Previous Version | Text Only | Print | Product List | Glossary On
Versions: 1 2 3 4 5 6 7 8 9 10 11 12 13 14 15
302
FTUS42 KMLB 100524
TAFMLB
TAF
KMLB 100524Z 1006/1106 33007KT P6SM BKN120
     FM101400 04013G20KT P6SM BKN040
     FM110100 05011KT P6SM BKN050
     FM110400 04009KT P6SM SCT050 SCT250=

USA.gov is the U.S. government's official web portal to all federal, state and local government web resources and services.